sensor_id;sensor_type;location;lat;lon;timestamp;P1;durP1;ratioP1;P2;durP2;ratioP2
31386;SDS011;18017;50.124;8.688;2022-12-18T00:03:52;30.45;;;7.00;;
31386;SDS011;18017;50.124;8.688;2022-12-18T00:06:19;36.15;;;7.72;;
31386;SDS011;18017;50.124;8.688;2022-12-18T00:08:46;34.20;;;7.85;;
31386;SDS011;18017;50.124;8.688;2022-12-18T00:11:13;42.13;;;8.35;;
31386;SDS011;18017;50.124;8.688;2022-12-18T00:13:39;39.70;;;7.93;;
31386;SDS011;18017;50.124;8.688;2022-12-18T00:16:06;37.17;;;7.40;;
31386;SDS011;18017;50.124;8.688;2022-12-18T00:18:34;40.67;;;7.70;;
31386;SDS011;18017;50.124;8.688;2022-12-18T00:21:00;37.47;;;7.72;;
31386;SDS011;18017;50.124;8.688;2022-12-18T00:23:28;41.67;;;7.45;;
31386;SDS011;18017;50.124;8.688;2022-12-18T00:25:54;38.30;;;7.82;;
31386;SDS011;18017;50.124;8.688;2022-12-18T00:28:20;46.80;;;8.52;;
31386;SDS011;18017;50.124;8.688;2022-12-18T00:30:45;40.65;;;9.32;;
31386;SDS011;18017;50.124;8.688;2022-12-18T00:33:11;37.45;;;8.38;;
31386;SDS011;18017;50.124;8.688;2022-12-18T00:35:36;37.90;;;7.53;;
31386;SDS011;18017;50.124;8.688;2022-12-18T00:38:02;39.58;;;8.02;;
31386;SDS011;18017;50.124;8.688;2022-12-18T00:40:27;35.47;;;8.32;;
31386;SDS011;18017;50.124;8.688;2022-12-18T00:42:53;41.05;;;7.88;;
31386;SDS011;18017;50.124;8.688;2022-12-18T00:45:31;34.90;;;7.63;;
31386;SDS011;18017;50.124;8.688;2022-12-18T00:47:56;40.70;;;8.20;;
31386;SDS011;18017;50.124;8.688;2022-12-18T00:50:23;38.83;;;8.68;;
31386;SDS011;18017;50.124;8.688;2022-12-18T00:52:50;36.08;;;7.15;;
31386;SDS011;18017;50.124;8.688;2022-12-18T00:55:16;34.60;;;6.65;;
31386;SDS011;18017;50.124;8.688;2022-12-18T00:57:42;31.75;;;7.15;;
31386;SDS011;18017;50.124;8.688;2022-12-18T01:00:08;31.02;;;7.57;;
31386;SDS011;18017;50.124;8.688;2022-12-18T01:02:37;28.38;;;6.93;;
31386;SDS011;18017;50.124;8.688;2022-12-18T01:05:03;31.10;;;7.28;;
31386;SDS011;18017;50.124;8.688;2022-12-18T01:07:29;33.40;;;6.97;;
31386;SDS011;18017;50.124;8.688;2022-12-18T01:09:54;33.60;;;7.20;;
31386;SDS011;18017;50.124;8.688;2022-12-18T01:12:20;25.95;;;6.25;;
31386;SDS011;18017;50.124;8.688;2022-12-18T01:14:46;29.88;;;6.43;;
31386;SDS011;18017;50.124;8.688;2022-12-18T01:17:11;31.15;;;6.07;;
31386;SDS011;18017;50.124;8.688;2022-12-18T01:19:37;30.13;;;6.07;;
31386;SDS011;18017;50.124;8.688;2022-12-18T01:22:02;29.80;;;6.38;;
31386;SDS011;18017;50.124;8.688;2022-12-18T01:24:28;37.13;;;6.82;;
31386;SDS011;18017;50.124;8.688;2022-12-18T01:26:53;36.03;;;6.68;;
31386;SDS011;18017;50.124;8.688;2022-12-18T01:29:19;39.45;;;7.45;;
31386;SDS011;18017;50.124;8.688;2022-12-18T01:31:44;31.25;;;7.13;;
31386;SDS011;18017;50.124;8.688;2022-12-18T01:34:10;35.22;;;7.18;;
31386;SDS011;18017;50.124;8.688;2022-12-18T01:36:36;37.65;;;7.55;;
31386;SDS011;18017;50.124;8.688;2022-12-18T01:39:09;38.03;;;7.97;;
31386;SDS011;18017;50.124;8.688;2022-12-18T01:41:37;27.20;;;6.22;;
31386;SDS011;18017;50.124;8.688;2022-12-18T01:50:35;35.45;;;7.20;;
31386;SDS011;18017;50.124;8.688;2022-12-18T01:55:35;28.35;;;6.85;;
31386;SDS011;18017;50.124;8.688;2022-12-18T01:58:04;42.10;;;7.72;;
31386;SDS011;18017;50.124;8.688;2022-12-18T02:00:30;32.42;;;6.72;;
31386;SDS011;18017;50.124;8.688;2022-12-18T02:02:57;32.55;;;6.85;;
31386;SDS011;18017;50.124;8.688;2022-12-18T02:05:26;38.50;;;7.50;;
31386;SDS011;18017;50.124;8.688;2022-12-18T02:08:10;36.80;;;7.82;;
31386;SDS011;18017;50.124;8.688;2022-12-18T02:14:03;41.95;;;8.02;;
31386;SDS011;18017;50.124;8.688;2022-12-18T02:16:38;34.97;;;7.43;;
31386;SDS011;18017;50.124;8.688;2022-12-18T02:19:30;33.58;;;7.60;;
31386;SDS011;18017;50.124;8.688;2022-12-18T02:25:31;35.60;;;7.75;;
31386;SDS011;18017;50.124;8.688;2022-12-18T02:28:09;36.83;;;8.23;;
31386;SDS011;18017;50.124;8.688;2022-12-18T02:30:38;44.95;;;7.88;;
31386;SDS011;18017;50.124;8.688;2022-12-18T02:33:06;32.35;;;6.95;;
31386;SDS011;18017;50.124;8.688;2022-12-18T02:35:34;37.67;;;7.45;;
31386;SDS011;18017;50.124;8.688;2022-12-18T02:38:01;32.65;;;7.80;;
31386;SDS011;18017;50.124;8.688;2022-12-18T02:40:29;37.00;;;7.20;;
31386;SDS011;18017;50.124;8.688;2022-12-18T02:42:55;44.78;;;8.00;;
31386;SDS011;18017;50.124;8.688;2022-12-18T02:45:33;36.25;;;7.50;;
31386;SDS011;18017;50.124;8.688;2022-12-18T02:47:59;36.17;;;7.80;;
31386;SDS011;18017;50.124;8.688;2022-12-18T02:53:06;36.55;;;7.53;;
31386;SDS011;18017;50.124;8.688;2022-12-18T02:58:41;33.30;;;7.00;;
31386;SDS011;18017;50.124;8.688;2022-12-18T03:04:14;30.58;;;7.60;;
31386;SDS011;18017;50.124;8.688;2022-12-18T03:07:12;42.65;;;7.70;;
31386;SDS011;18017;50.124;8.688;2022-12-18T03:09:48;32.25;;;7.03;;
31386;SDS011;18017;50.124;8.688;2022-12-18T03:12:30;38.38;;;7.78;;
31386;SDS011;18017;50.124;8.688;2022-12-18T03:15:03;31.05;;;6.88;;
31386;SDS011;18017;50.124;8.688;2022-12-18T03:17:40;37.20;;;7.57;;
31386;SDS011;18017;50.124;8.688;2022-12-18T03:20:14;34.70;;;8.05;;
31386;SDS011;18017;50.124;8.688;2022-12-18T03:22:44;39.97;;;8.30;;
31386;SDS011;18017;50.124;8.688;2022-12-18T03:25:15;32.97;;;7.18;;
31386;SDS011;18017;50.124;8.688;2022-12-18T03:27:46;30.35;;;7.13;;
31386;SDS011;18017;50.124;8.688;2022-12-18T03:30:14;36.05;;;7.85;;
31386;SDS011;18017;50.124;8.688;2022-12-18T03:32:47;31.88;;;6.45;;
31386;SDS011;18017;50.124;8.688;2022-12-18T03:35:20;32.20;;;7.25;;
31386;SDS011;18017;50.124;8.688;2022-12-18T03:37:51;33.17;;;6.97;;
31386;SDS011;18017;50.124;8.688;2022-12-18T03:40:17;35.90;;;6.97;;
31386;SDS011;18017;50.124;8.688;2022-12-18T03:42:48;32.08;;;7.25;;
31386;SDS011;18017;50.124;8.688;2022-12-18T03:45:22;35.75;;;7.45;;
31386;SDS011;18017;50.124;8.688;2022-12-18T03:48:03;31.27;;;6.65;;
31386;SDS011;18017;50.124;8.688;2022-12-18T03:51:01;36.40;;;6.93;;
31386;SDS011;18017;50.124;8.688;2022-12-18T03:56:06;27.75;;;6.82;;
31386;SDS011;18017;50.124;8.688;2022-12-18T03:58:34;26.30;;;6.13;;
31386;SDS011;18017;50.124;8.688;2022-12-18T04:01:03;33.22;;;6.57;;
31386;SDS011;18017;50.124;8.688;2022-12-18T04:03:34;31.88;;;7.10;;
31386;SDS011;18017;50.124;8.688;2022-12-18T04:06:01;38.80;;;7.47;;
31386;SDS011;18017;50.124;8.688;2022-12-18T04:08:28;34.15;;;7.03;;
31386;SDS011;18017;50.124;8.688;2022-12-18T04:10:54;32.95;;;6.72;;
31386;SDS011;18017;50.124;8.688;2022-12-18T04:13:23;29.50;;;8.07;;
31386;SDS011;18017;50.124;8.688;2022-12-18T04:18:18;29.75;;;6.50;;
31386;SDS011;18017;50.124;8.688;2022-12-18T04:20:44;33.58;;;6.38;;
31386;SDS011;18017;50.124;8.688;2022-12-18T04:23:10;31.10;;;6.63;;
31386;SDS011;18017;50.124;8.688;2022-12-18T04:25:35;28.50;;;7.45;;
31386;SDS011;18017;50.124;8.688;2022-12-18T04:28:01;31.60;;;6.85;;
31386;SDS011;18017;50.124;8.688;2022-12-18T04:30:26;34.33;;;7.43;;
31386;SDS011;18017;50.124;8.688;2022-12-18T04:32:52;26.98;;;6.45;;
31386;SDS011;18017;50.124;8.688;2022-12-18T04:35:18;33.22;;;7.75;;
31386;SDS011;18017;50.124;8.688;2022-12-18T04:37:43;27.48;;;6.90;;
31386;SDS011;18017;50.124;8.688;2022-12-18T04:40:09;27.25;;;6.30;;
31386;SDS011;18017;50.124;8.688;2022-12-18T04:42:35;29.08;;;6.93;;
31386;SDS011;18017;50.124;8.688;2022-12-18T04:45:00;31.85;;;6.95;;
31386;SDS011;18017;50.124;8.688;2022-12-18T04:47:26;28.63;;;7.22;;
31386;SDS011;18017;50.124;8.688;2022-12-18T04:49:51;34.25;;;6.40;;
31386;SDS011;18017;50.124;8.688;2022-12-18T04:52:17;30.77;;;7.10;;
31386;SDS011;18017;50.124;8.688;2022-12-18T04:54:42;30.95;;;6.57;;
31386;SDS011;18017;50.124;8.688;2022-12-18T04:57:09;27.35;;;6.38;;
31386;SDS011;18017;50.124;8.688;2022-12-18T04:59:34;25.05;;;5.55;;
31386;SDS011;18017;50.124;8.688;2022-12-18T05:02:00;32.25;;;7.00;;
31386;SDS011;18017;50.124;8.688;2022-12-18T05:04:26;40.38;;;7.72;;
31386;SDS011;18017;50.124;8.688;2022-12-18T05:06:51;33.08;;;6.85;;
31386;SDS011;18017;50.124;8.688;2022-12-18T05:09:17;36.10;;;7.63;;
31386;SDS011;18017;50.124;8.688;2022-12-18T05:11:42;35.17;;;7.28;;
31386;SDS011;18017;50.124;8.688;2022-12-18T05:14:08;32.97;;;6.70;;
31386;SDS011;18017;50.124;8.688;2022-12-18T05:16:33;30.13;;;7.03;;
31386;SDS011;18017;50.124;8.688;2022-12-18T05:18:59;32.70;;;7.15;;
31386;SDS011;18017;50.124;8.688;2022-12-18T05:21:24;30.42;;;6.93;;
31386;SDS011;18017;50.124;8.688;2022-12-18T05:23:50;27.83;;;6.28;;
31386;SDS011;18017;50.124;8.688;2022-12-18T05:26:16;29.67;;;6.43;;
31386;SDS011;18017;50.124;8.688;2022-12-18T05:28:43;21.98;;;5.88;;
31386;SDS011;18017;50.124;8.688;2022-12-18T05:31:09;30.10;;;7.85;;
31386;SDS011;18017;50.124;8.688;2022-12-18T05:33:35;28.88;;;6.75;;
31386;SDS011;18017;50.124;8.688;2022-12-18T05:36:01;33.63;;;6.85;;
31386;SDS011;18017;50.124;8.688;2022-12-18T05:38:28;31.77;;;6.70;;
31386;SDS011;18017;50.124;8.688;2022-12-18T05:40:55;29.90;;;6.65;;
31386;SDS011;18017;50.124;8.688;2022-12-18T05:43:22;31.58;;;7.32;;
31386;SDS011;18017;50.124;8.688;2022-12-18T05:45:48;28.42;;;7.25;;
31386;SDS011;18017;50.124;8.688;2022-12-18T05:48:15;26.30;;;6.88;;
31386;SDS011;18017;50.124;8.688;2022-12-18T05:50:42;36.15;;;7.00;;
31386;SDS011;18017;50.124;8.688;2022-12-18T05:53:10;25.38;;;5.93;;
31386;SDS011;18017;50.124;8.688;2022-12-18T05:55:36;31.58;;;7.13;;
31386;SDS011;18017;50.124;8.688;2022-12-18T05:58:03;35.50;;;7.22;;
31386;SDS011;18017;50.124;8.688;2022-12-18T06:00:31;33.83;;;6.82;;
31386;SDS011;18017;50.124;8.688;2022-12-18T06:02:58;29.65;;;6.75;;
31386;SDS011;18017;50.124;8.688;2022-12-18T06:05:24;31.83;;;7.13;;
31386;SDS011;18017;50.124;8.688;2022-12-18T06:07:49;29.77;;;6.60;;
31386;SDS011;18017;50.124;8.688;2022-12-18T06:10:15;29.25;;;7.00;;
31386;SDS011;18017;50.124;8.688;2022-12-18T06:12:41;29.08;;;6.55;;
31386;SDS011;18017;50.124;8.688;2022-12-18T06:15:06;29.23;;;6.57;;
31386;SDS011;18017;50.124;8.688;2022-12-18T06:17:32;33.13;;;7.20;;
31386;SDS011;18017;50.124;8.688;2022-12-18T06:19:59;24.83;;;6.03;;
31386;SDS011;18017;50.124;8.688;2022-12-18T06:22:25;27.58;;;6.53;;
31386;SDS011;18017;50.124;8.688;2022-12-18T06:24:51;31.98;;;7.00;;
31386;SDS011;18017;50.124;8.688;2022-12-18T06:27:16;25.92;;;6.32;;
31386;SDS011;18017;50.124;8.688;2022-12-18T06:29:42;25.75;;;6.32;;
31386;SDS011;18017;50.124;8.688;2022-12-18T06:32:07;32.75;;;6.82;;
31386;SDS011;18017;50.124;8.688;2022-12-18T06:34:33;29.38;;;6.55;;
31386;SDS011;18017;50.124;8.688;2022-12-18T06:36:59;22.92;;;5.78;;
31386;SDS011;18017;50.124;8.688;2022-12-18T06:39:27;27.55;;;6.18;;
31386;SDS011;18017;50.124;8.688;2022-12-18T06:41:53;26.63;;;6.13;;
31386;SDS011;18017;50.124;8.688;2022-12-18T06:44:18;26.65;;;6.88;;
31386;SDS011;18017;50.124;8.688;2022-12-18T06:46:44;24.63;;;6.47;;
31386;SDS011;18017;50.124;8.688;2022-12-18T06:49:10;26.77;;;7.13;;
31386;SDS011;18017;50.124;8.688;2022-12-18T06:51:36;28.00;;;6.72;;
31386;SDS011;18017;50.124;8.688;2022-12-18T06:54:01;32.00;;;7.30;;
31386;SDS011;18017;50.124;8.688;2022-12-18T06:56:27;20.25;;;5.70;;
31386;SDS011;18017;50.124;8.688;2022-12-18T06:58:53;29.92;;;7.13;;
31386;SDS011;18017;50.124;8.688;2022-12-18T07:01:18;30.65;;;7.10;;
31386;SDS011;18017;50.124;8.688;2022-12-18T07:03:44;30.40;;;7.13;;
31386;SDS011;18017;50.124;8.688;2022-12-18T07:06:14;31.40;;;6.82;;
31386;SDS011;18017;50.124;8.688;2022-12-18T07:08:41;29.65;;;6.40;;
31386;SDS011;18017;50.124;8.688;2022-12-18T07:11:07;33.33;;;6.72;;
31386;SDS011;18017;50.124;8.688;2022-12-18T07:13:32;34.65;;;6.93;;
31386;SDS011;18017;50.124;8.688;2022-12-18T07:16:05;24.83;;;6.35;;
31386;SDS011;18017;50.124;8.688;2022-12-18T07:18:35;27.30;;;6.50;;
31386;SDS011;18017;50.124;8.688;2022-12-18T07:21:04;28.70;;;6.60;;
31386;SDS011;18017;50.124;8.688;2022-12-18T07:23:32;33.88;;;7.68;;
31386;SDS011;18017;50.124;8.688;2022-12-18T07:26:06;29.50;;;6.25;;
31386;SDS011;18017;50.124;8.688;2022-12-18T07:28:33;26.13;;;5.80;;
31386;SDS011;18017;50.124;8.688;2022-12-18T07:31:03;33.55;;;7.65;;
31386;SDS011;18017;50.124;8.688;2022-12-18T07:33:30;25.10;;;6.35;;
31386;SDS011;18017;50.124;8.688;2022-12-18T07:35:58;28.80;;;6.60;;
31386;SDS011;18017;50.124;8.688;2022-12-18T07:38:28;27.98;;;7.38;;
31386;SDS011;18017;50.124;8.688;2022-12-18T07:40:54;36.35;;;7.65;;
31386;SDS011;18017;50.124;8.688;2022-12-18T07:43:25;30.85;;;7.18;;
31386;SDS011;18017;50.124;8.688;2022-12-18T07:45:50;39.88;;;7.68;;
31386;SDS011;18017;50.124;8.688;2022-12-18T07:48:16;31.92;;;7.10;;
31386;SDS011;18017;50.124;8.688;2022-12-18T07:50:41;34.58;;;7.60;;
31386;SDS011;18017;50.124;8.688;2022-12-18T07:53:07;28.25;;;6.80;;
31386;SDS011;18017;50.124;8.688;2022-12-18T07:55:32;32.78;;;7.05;;
31386;SDS011;18017;50.124;8.688;2022-12-18T07:58:00;36.15;;;8.50;;
31386;SDS011;18017;50.124;8.688;2022-12-18T08:00:27;29.15;;;7.00;;
31386;SDS011;18017;50.124;8.688;2022-12-18T08:02:52;26.92;;;6.85;;
31386;SDS011;18017;50.124;8.688;2022-12-18T08:05:18;27.67;;;5.80;;
31386;SDS011;18017;50.124;8.688;2022-12-18T08:07:45;28.67;;;6.82;;
31386;SDS011;18017;50.124;8.688;2022-12-18T08:10:11;32.40;;;7.18;;
31386;SDS011;18017;50.124;8.688;2022-12-18T08:12:36;28.48;;;7.47;;
31386;SDS011;18017;50.124;8.688;2022-12-18T08:15:02;28.45;;;7.15;;
31386;SDS011;18017;50.124;8.688;2022-12-18T08:17:28;24.88;;;6.40;;
31386;SDS011;18017;50.124;8.688;2022-12-18T08:19:53;36.25;;;7.75;;
31386;SDS011;18017;50.124;8.688;2022-12-18T08:22:19;27.27;;;7.30;;
31386;SDS011;18017;50.124;8.688;2022-12-18T08:24:44;26.08;;;6.28;;
31386;SDS011;18017;50.124;8.688;2022-12-18T08:27:10;26.55;;;6.88;;
31386;SDS011;18017;50.124;8.688;2022-12-18T08:29:35;29.75;;;7.18;;
31386;SDS011;18017;50.124;8.688;2022-12-18T08:32:01;27.15;;;7.00;;
31386;SDS011;18017;50.124;8.688;2022-12-18T08:34:27;25.25;;;6.10;;
31386;SDS011;18017;50.124;8.688;2022-12-18T08:36:53;31.83;;;8.43;;
31386;SDS011;18017;50.124;8.688;2022-12-18T08:39:18;31.30;;;7.75;;
31386;SDS011;18017;50.124;8.688;2022-12-18T08:41:46;28.67;;;7.03;;
31386;SDS011;18017;50.124;8.688;2022-12-18T08:44:32;26.40;;;7.10;;
31386;SDS011;18017;50.124;8.688;2022-12-18T08:47:04;28.00;;;6.47;;
31386;SDS011;18017;50.124;8.688;2022-12-18T08:49:30;30.55;;;7.68;;
31386;SDS011;18017;50.124;8.688;2022-12-18T08:51:56;23.77;;;7.18;;
31386;SDS011;18017;50.124;8.688;2022-12-18T08:54:22;25.23;;;7.50;;
31386;SDS011;18017;50.124;8.688;2022-12-18T08:56:49;32.25;;;7.63;;
31386;SDS011;18017;50.124;8.688;2022-12-18T08:59:15;34.67;;;8.13;;
31386;SDS011;18017;50.124;8.688;2022-12-18T09:01:41;30.75;;;7.43;;
31386;SDS011;18017;50.124;8.688;2022-12-18T09:04:07;30.85;;;7.57;;
31386;SDS011;18017;50.124;8.688;2022-12-18T09:06:33;30.00;;;8.18;;
31386;SDS011;18017;50.124;8.688;2022-12-18T09:08:59;27.60;;;7.93;;
31386;SDS011;18017;50.124;8.688;2022-12-18T09:11:26;36.05;;;9.18;;
31386;SDS011;18017;50.124;8.688;2022-12-18T09:13:52;34.53;;;8.77;;
31386;SDS011;18017;50.124;8.688;2022-12-18T09:16:19;34.83;;;8.52;;
31386;SDS011;18017;50.124;8.688;2022-12-18T09:18:45;30.52;;;7.07;;
31386;SDS011;18017;50.124;8.688;2022-12-18T09:21:12;28.27;;;8.05;;
31386;SDS011;18017;50.124;8.688;2022-12-18T09:23:40;16.88;;;4.40;;
31386;SDS011;18017;50.124;8.688;2022-12-18T09:26:06;30.45;;;8.48;;
31386;SDS011;18017;50.124;8.688;2022-12-18T09:28:32;22.00;;;6.30;;
31386;SDS011;18017;50.124;8.688;2022-12-18T09:30:58;26.05;;;7.72;;
31386;SDS011;18017;50.124;8.688;2022-12-18T09:33:23;34.20;;;8.55;;
31386;SDS011;18017;50.124;8.688;2022-12-18T09:35:49;35.45;;;8.80;;
31386;SDS011;18017;50.124;8.688;2022-12-18T09:38:17;34.10;;;9.57;;
31386;SDS011;18017;50.124;8.688;2022-12-18T09:40:45;30.73;;;8.25;;
31386;SDS011;18017;50.124;8.688;2022-12-18T09:43:17;37.67;;;9.88;;
31386;SDS011;18017;50.124;8.688;2022-12-18T09:45:46;26.17;;;7.20;;
31386;SDS011;18017;50.124;8.688;2022-12-18T09:48:18;43.80;;;9.98;;
31386;SDS011;18017;50.124;8.688;2022-12-18T09:51:20;39.20;;;9.80;;
31386;SDS011;18017;50.124;8.688;2022-12-18T09:56:50;33.00;;;8.05;;
31386;SDS011;18017;50.124;8.688;2022-12-18T09:59:23;26.48;;;6.80;;
31386;SDS011;18017;50.124;8.688;2022-12-18T10:01:56;33.88;;;9.68;;
31386;SDS011;18017;50.124;8.688;2022-12-18T10:04:23;37.25;;;9.45;;
31386;SDS011;18017;50.124;8.688;2022-12-18T10:12:06;34.75;;;9.15;;
31386;SDS011;18017;50.124;8.688;2022-12-18T10:23:00;16.90;;;5.22;;
31386;SDS011;18017;50.124;8.688;2022-12-18T10:28:18;35.58;;;8.85;;
31386;SDS011;18017;50.124;8.688;2022-12-18T10:30:45;38.80;;;9.77;;
31386;SDS011;18017;50.124;8.688;2022-12-18T10:33:12;34.38;;;7.07;;
31386;SDS011;18017;50.124;8.688;2022-12-18T10:35:43;39.53;;;10.20;;
31386;SDS011;18017;50.124;8.688;2022-12-18T10:43:26;49.70;;;11.60;;
31386;SDS011;18017;50.124;8.688;2022-12-18T10:48:39;26.88;;;8.27;;
31386;SDS011;18017;50.124;8.688;2022-12-18T10:51:32;42.20;;;10.25;;
31386;SDS011;18017;50.124;8.688;2022-12-18T10:54:00;28.50;;;6.05;;
31386;SDS011;18017;50.124;8.688;2022-12-18T10:56:38;25.33;;;6.55;;
31386;SDS011;18017;50.124;8.688;2022-12-18T10:59:06;21.20;;;6.40;;
31386;SDS011;18017;50.124;8.688;2022-12-18T11:04:16;18.67;;;5.78;;
31386;SDS011;18017;50.124;8.688;2022-12-18T11:09:23;42.63;;;9.60;;
31386;SDS011;18017;50.124;8.688;2022-12-18T11:11:51;42.20;;;9.80;;
31386;SDS011;18017;50.124;8.688;2022-12-18T11:16:50;43.65;;;10.40;;
31386;SDS011;18017;50.124;8.688;2022-12-18T11:21:57;47.95;;;10.13;;
31386;SDS011;18017;50.124;8.688;2022-12-18T11:27:03;29.48;;;6.05;;
31386;SDS011;18017;50.124;8.688;2022-12-18T11:29:34;39.58;;;10.10;;
31386;SDS011;18017;50.124;8.688;2022-12-18T11:37:29;35.38;;;9.73;;
31386;SDS011;18017;50.124;8.688;2022-12-18T11:39:57;50.22;;;9.65;;
31386;SDS011;18017;50.124;8.688;2022-12-18T11:42:30;51.55;;;10.75;;
31386;SDS011;18017;50.124;8.688;2022-12-18T11:45:18;42.78;;;10.27;;
31386;SDS011;18017;50.124;8.688;2022-12-18T11:47:52;50.55;;;11.55;;
31386;SDS011;18017;50.124;8.688;2022-12-18T11:50:26;34.20;;;8.20;;
31386;SDS011;18017;50.124;8.688;2022-12-18T11:52:58;41.53;;;10.35;;
31386;SDS011;18017;50.124;8.688;2022-12-18T11:55:41;44.05;;;11.32;;
31386;SDS011;18017;50.124;8.688;2022-12-18T11:58:26;43.78;;;10.70;;
31386;SDS011;18017;50.124;8.688;2022-12-18T12:04:09;46.78;;;10.88;;
31386;SDS011;18017;50.124;8.688;2022-12-18T12:09:24;43.50;;;9.85;;
31386;SDS011;18017;50.124;8.688;2022-12-18T12:14:51;49.78;;;11.10;;
31386;SDS011;18017;50.124;8.688;2022-12-18T12:20:07;36.85;;;9.02;;
31386;SDS011;18017;50.124;8.688;2022-12-18T12:22:58;36.20;;;8.48;;
31386;SDS011;18017;50.124;8.688;2022-12-18T12:25:41;34.33;;;8.82;;
31386;SDS011;18017;50.124;8.688;2022-12-18T12:33:52;29.40;;;7.57;;
31386;SDS011;18017;50.124;8.688;2022-12-18T12:39:18;34.40;;;8.75;;
31386;SDS011;18017;50.124;8.688;2022-12-18T12:41:48;40.08;;;9.45;;
31386;SDS011;18017;50.124;8.688;2022-12-18T12:44:34;35.20;;;8.48;;
31386;SDS011;18017;50.124;8.688;2022-12-18T12:47:14;32.83;;;7.57;;
31386;SDS011;18017;50.124;8.688;2022-12-18T12:49:44;43.47;;;10.77;;
31386;SDS011;18017;50.124;8.688;2022-12-18T12:52:14;27.85;;;6.53;;
31386;SDS011;18017;50.124;8.688;2022-12-18T12:54:43;49.97;;;10.90;;
31386;SDS011;18017;50.124;8.688;2022-12-18T13:05:04;43.95;;;9.82;;
31386;SDS011;18017;50.124;8.688;2022-12-18T13:15:23;41.67;;;8.45;;
31386;SDS011;18017;50.124;8.688;2022-12-18T13:20:41;50.88;;;10.80;;
31386;SDS011;18017;50.124;8.688;2022-12-18T13:23:45;45.50;;;10.40;;
31386;SDS011;18017;50.124;8.688;2022-12-18T13:36:55;32.33;;;8.13;;
31386;SDS011;18017;50.124;8.688;2022-12-18T13:39:41;46.85;;;11.18;;
31386;SDS011;18017;50.124;8.688;2022-12-18T13:44:33;45.50;;;9.55;;
31386;SDS011;18017;50.124;8.688;2022-12-18T13:47:00;41.92;;;8.90;;
31386;SDS011;18017;50.124;8.688;2022-12-18T13:49:35;33.28;;;8.35;;
31386;SDS011;18017;50.124;8.688;2022-12-18T13:52:02;37.83;;;10.15;;
31386;SDS011;18017;50.124;8.688;2022-12-18T13:54:39;36.13;;;8.45;;
31386;SDS011;18017;50.124;8.688;2022-12-18T13:57:24;23.92;;;6.28;;
31386;SDS011;18017;50.124;8.688;2022-12-18T13:59:59;28.77;;;6.53;;
31386;SDS011;18017;50.124;8.688;2022-12-18T14:02:51;40.70;;;9.82;;
31386;SDS011;18017;50.124;8.688;2022-12-18T14:05:23;44.70;;;8.75;;
31386;SDS011;18017;50.124;8.688;2022-12-18T14:07:55;23.58;;;6.38;;
31386;SDS011;18017;50.124;8.688;2022-12-18T14:10:39;43.13;;;9.57;;
31386;SDS011;18017;50.124;8.688;2022-12-18T14:13:10;48.72;;;10.70;;
31386;SDS011;18017;50.124;8.688;2022-12-18T14:15:41;43.40;;;9.38;;
31386;SDS011;18017;50.124;8.688;2022-12-18T14:21:06;52.58;;;10.55;;
31386;SDS011;18017;50.124;8.688;2022-12-18T14:23:40;47.58;;;11.27;;
31386;SDS011;18017;50.124;8.688;2022-12-18T14:26:23;50.92;;;11.02;;
31386;SDS011;18017;50.124;8.688;2022-12-18T14:28:56;43.42;;;10.25;;
31386;SDS011;18017;50.124;8.688;2022-12-18T14:31:24;36.22;;;9.05;;
31386;SDS011;18017;50.124;8.688;2022-12-18T14:33:51;39.28;;;7.97;;
31386;SDS011;18017;50.124;8.688;2022-12-18T14:36:19;41.88;;;10.10;;
31386;SDS011;18017;50.124;8.688;2022-12-18T14:39:04;34.88;;;9.10;;
31386;SDS011;18017;50.124;8.688;2022-12-18T14:41:30;48.38;;;8.50;;
31386;SDS011;18017;50.124;8.688;2022-12-18T14:44:04;46.25;;;10.75;;
31386;SDS011;18017;50.124;8.688;2022-12-18T14:48:57;46.42;;;10.30;;
31386;SDS011;18017;50.124;8.688;2022-12-18T14:51:29;44.38;;;10.50;;
31386;SDS011;18017;50.124;8.688;2022-12-18T14:54:03;43.53;;;9.32;;
31386;SDS011;18017;50.124;8.688;2022-12-18T14:56:49;41.70;;;9.98;;
31386;SDS011;18017;50.124;8.688;2022-12-18T14:59:20;45.65;;;10.77;;
31386;SDS011;18017;50.124;8.688;2022-12-18T15:04:38;45.22;;;10.50;;
31386;SDS011;18017;50.124;8.688;2022-12-18T15:07:11;47.00;;;10.27;;
31386;SDS011;18017;50.124;8.688;2022-12-18T15:12:36;46.60;;;10.50;;
31386;SDS011;18017;50.124;8.688;2022-12-18T15:15:02;45.95;;;9.98;;
31386;SDS011;18017;50.124;8.688;2022-12-18T15:17:28;42.28;;;10.57;;
31386;SDS011;18017;50.124;8.688;2022-12-18T15:20:01;42.80;;;10.88;;
31386;SDS011;18017;50.124;8.688;2022-12-18T15:22:34;42.78;;;10.43;;
31386;SDS011;18017;50.124;8.688;2022-12-18T15:25:00;44.35;;;9.90;;
31386;SDS011;18017;50.124;8.688;2022-12-18T15:32:33;47.00;;;10.88;;
31386;SDS011;18017;50.124;8.688;2022-12-18T15:37:34;48.83;;;11.07;;
31386;SDS011;18017;50.124;8.688;2022-12-18T15:40:00;49.75;;;11.65;;
31386;SDS011;18017;50.124;8.688;2022-12-18T15:42:27;46.83;;;11.95;;
31386;SDS011;18017;50.124;8.688;2022-12-18T15:45:12;48.72;;;11.25;;
31386;SDS011;18017;50.124;8.688;2022-12-18T15:47:38;52.28;;;12.02;;
31386;SDS011;18017;50.124;8.688;2022-12-18T15:50:04;46.33;;;11.85;;
31386;SDS011;18017;50.124;8.688;2022-12-18T15:52:32;48.42;;;11.63;;
31386;SDS011;18017;50.124;8.688;2022-12-18T15:55:05;44.05;;;10.88;;
31386;SDS011;18017;50.124;8.688;2022-12-18T15:57:54;43.05;;;9.90;;
31386;SDS011;18017;50.124;8.688;2022-12-18T16:00:19;52.20;;;11.82;;
31386;SDS011;18017;50.124;8.688;2022-12-18T16:02:45;52.40;;;11.70;;
31386;SDS011;18017;50.124;8.688;2022-12-18T16:05:14;50.03;;;10.93;;
31386;SDS011;18017;50.124;8.688;2022-12-18T16:07:41;46.63;;;12.32;;
31386;SDS011;18017;50.124;8.688;2022-12-18T16:10:08;45.17;;;11.38;;
31386;SDS011;18017;50.124;8.688;2022-12-18T16:12:33;47.75;;;12.45;;
31386;SDS011;18017;50.124;8.688;2022-12-18T16:14:59;50.25;;;11.50;;
31386;SDS011;18017;50.124;8.688;2022-12-18T16:17:25;47.03;;;12.20;;
31386;SDS011;18017;50.124;8.688;2022-12-18T16:19:50;54.03;;;11.38;;
31386;SDS011;18017;50.124;8.688;2022-12-18T16:22:23;52.58;;;12.18;;
31386;SDS011;18017;50.124;8.688;2022-12-18T16:24:51;45.35;;;10.43;;
31386;SDS011;18017;50.124;8.688;2022-12-18T16:27:18;48.92;;;11.32;;
31386;SDS011;18017;50.124;8.688;2022-12-18T16:29:44;45.95;;;11.00;;
31386;SDS011;18017;50.124;8.688;2022-12-18T16:32:20;44.22;;;10.98;;
31386;SDS011;18017;50.124;8.688;2022-12-18T16:34:47;46.83;;;11.23;;
31386;SDS011;18017;50.124;8.688;2022-12-18T16:37:14;41.63;;;10.82;;
31386;SDS011;18017;50.124;8.688;2022-12-18T16:39:40;49.63;;;11.38;;
31386;SDS011;18017;50.124;8.688;2022-12-18T16:42:17;47.42;;;11.13;;
31386;SDS011;18017;50.124;8.688;2022-12-18T16:44:44;49.40;;;11.13;;
31386;SDS011;18017;50.124;8.688;2022-12-18T16:47:10;45.67;;;11.40;;
31386;SDS011;18017;50.124;8.688;2022-12-18T16:49:36;47.00;;;11.30;;
31386;SDS011;18017;50.124;8.688;2022-12-18T16:52:02;41.08;;;9.95;;
31386;SDS011;18017;50.124;8.688;2022-12-18T16:54:29;40.47;;;9.68;;
31386;SDS011;18017;50.124;8.688;2022-12-18T16:56:54;41.67;;;10.20;;
31386;SDS011;18017;50.124;8.688;2022-12-18T16:59:20;37.28;;;8.77;;
31386;SDS011;18017;50.124;8.688;2022-12-18T17:01:46;43.17;;;9.82;;
31386;SDS011;18017;50.124;8.688;2022-12-18T17:04:12;39.25;;;9.52;;
31386;SDS011;18017;50.124;8.688;2022-12-18T17:06:39;37.67;;;9.43;;
31386;SDS011;18017;50.124;8.688;2022-12-18T17:09:07;41.45;;;10.55;;
31386;SDS011;18017;50.124;8.688;2022-12-18T17:11:35;42.70;;;9.70;;